Time;durP1;ratioP1;P1;durP2;ratioP2;P2;SDS_P1;SDS_P2;PMS_P1;PMS_P2;Temp;Humidity;BMP_temperature;BMP_pressure;BME280_temperature;BME280_humidity;BME280_pressure;Samples;Min_cycle;Max_cycle;Signal;HPM_P1;HPM_P2
2022/01/11 00:00:28;;;;;;;7.32;4.32;;;;;;;;;;5081270;28;20028;-48
2022/01/11 00:02:56;;;;;;;7.60;4.57;;;;;;;;;;5084534;28;20051;-48
2022/01/11 00:07:50;;;;;;;9.07;5.15;;;;;;;;;;5104288;28;20479;-48
2022/01/11 00:10:27;;;;;;;9.13;4.97;;;;;;;;;;5104112;28;20394;-48
2022/01/11 00:12:53;;;;;;;7.72;4.85;;;;;;;;;;5093524;28;20024;-47
2022/01/11 00:15:21;;;;;;;6.97;4.32;;;;;;;;;;5095209;28;20024;-49
2022/01/11 00:17:48;;;;;;;6.93;4.32;;;;;;;;;;5084355;28;20032;-47
2022/01/11 00:20:16;;;;;;;6.97;4.60;;;;;;;;;;5104261;28;20031;-48
2022/01/11 00:25:25;;;;;;;9.20;5.47;;;;;;;;;;5103984;28;20451;-50
2022/01/11 00:27:51;;;;;;;7.25;4.82;;;;;;;;;;5091985;28;20032;-48
2022/01/11 00:30:17;;;;;;;10.77;5.75;;;;;;;;;;5065746;28;20020;-47
2022/01/11 00:32:48;;;;;;;7.82;4.43;;;;;;;;;;5083601;28;20502;-46
2022/01/11 00:35:16;;;;;;;8.50;5.15;;;;;;;;;;5084127;28;20380;-48
2022/01/11 00:37:44;;;;;;;8.73;4.85;;;;;;;;;;5091505;28;20069;-48
2022/01/11 00:40:11;;;;;;;7.28;4.57;;;;;;;;;;5104107;28;20062;-48
2022/01/11 00:42:37;;;;;;;7.25;4.45;;;;;;;;;;5095404;28;20023;-47
2022/01/11 00:45:09;;;;;;;6.10;3.80;;;;;;;;;;5063968;28;20024;-48
2022/01/11 00:47:36;;;;;;;5.97;4.22;;;;;;;;;;5098083;28;20039;-47
2022/01/11 00:50:03;;;;;;;8.95;5.15;;;;;;;;;;5108113;28;20028;-47
2022/01/11 00:52:30;;;;;;;8.57;4.72;;;;;;;;;;5107425;28;20470;-48
2022/01/11 00:54:56;;;;;;;6.40;3.88;;;;;;;;;;5108147;28;20542;-48
2022/01/11 00:57:23;;;;;;;6.55;4.60;;;;;;;;;;5097576;28;20131;-50
2022/01/11 00:59:49;;;;;;;8.27;4.65;;;;;;;;;;5098050;28;20379;-47
2022/01/11 01:02:15;;;;;;;6.18;4.13;;;;;;;;;;5102196;28;20538;-48
2022/01/11 01:04:41;;;;;;;6.03;3.50;;;;;;;;;;5105054;28;20587;-48
2022/01/11 01:07:07;;;;;;;6.55;3.60;;;;;;;;;;5105844;28;20031;-48
2022/01/11 01:09:52;;;;;;;6.70;3.88;;;;;;;;;;5088646;28;20026;-48
2022/01/11 01:12:18;;;;;;;6.78;3.50;;;;;;;;;;5101413;28;20028;-48
2022/01/11 01:14:45;;;;;;;5.95;3.80;;;;;;;;;;5086448;28;20059;-48
2022/01/11 01:17:11;;;;;;;6.40;4.13;;;;;;;;;;5097326;28;20043;-49
2022/01/11 01:19:37;;;;;;;6.63;4.60;;;;;;;;;;5070871;28;20087;-49
2022/01/11 01:22:03;;;;;;;7.10;4.05;;;;;;;;;;5088172;28;20055;-47
2022/01/11 01:24:29;;;;;;;7.32;4.18;;;;;;;;;;5088494;28;20748;-52
2022/01/11 01:26:55;;;;;;;8.30;4.50;;;;;;;;;;5088642;28;20036;-50
2022/01/11 01:29:22;;;;;;;8.40;3.97;;;;;;;;;;5091778;28;20020;-52
2022/01/11 01:31:48;;;;;;;6.45;4.65;;;;;;;;;;5108165;28;20024;-51
2022/01/11 01:34:14;;;;;;;8.18;4.70;;;;;;;;;;5109628;28;20024;-52
2022/01/11 01:36:40;;;;;;;6.65;4.40;;;;;;;;;;5105114;28;20077;-52
2022/01/11 01:39:06;;;;;;;6.18;4.32;;;;;;;;;;5088759;28;20032;-49
2022/01/11 01:41:32;;;;;;;8.70;5.18;;;;;;;;;;5105175;28;20035;-49
2022/01/11 01:44:03;;;;;;;8.13;5.00;;;;;;;;;;5088062;28;20669;-48
2022/01/11 01:46:29;;;;;;;9.55;5.03;;;;;;;;;;5086880;28;20403;-48
2022/01/11 01:48:59;;;;;;;7.68;5.03;;;;;;;;;;5106871;28;20071;-49
2022/01/11 01:51:25;;;;;;;8.88;5.07;;;;;;;;;;5105994;28;20020;-48
2022/01/11 01:53:52;;;;;;;8.57;4.80;;;;;;;;;;5107619;28;20406;-49
2022/01/11 01:56:20;;;;;;;7.65;4.57;;;;;;;;;;5107964;28;20095;-48
2022/01/11 01:58:46;;;;;;;6.78;4.43;;;;;;;;;;5087162;28;20078;-48
2022/01/11 02:01:14;;;;;;;6.07;4.10;;;;;;;;;;5099022;28;20098;-48
2022/01/11 02:03:41;;;;;;;8.07;4.45;;;;;;;;;;5107045;28;20032;-48
2022/01/11 02:06:08;;;;;;;6.68;4.28;;;;;;;;;;5107373;28;20020;-48
2022/01/11 02:08:34;;;;;;;7.15;4.50;;;;;;;;;;5106642;28;20102;-48
2022/01/11 02:11:02;;;;;;;6.88;4.22;;;;;;;;;;5105253;28;20057;-48
2022/01/11 02:13:29;;;;;;;5.80;3.72;;;;;;;;;;5091115;28;20558;-48
2022/01/11 02:15:55;;;;;;;7.57;4.63;;;;;;;;;;5094482;28;20059;-50
2022/01/11 02:18:25;;;;;;;6.63;4.38;;;;;;;;;;5105361;28;20031;-48
2022/01/11 02:20:52;;;;;;;7.68;4.88;;;;;;;;;;5098258;28;20028;-51
2022/01/11 02:23:19;;;;;;;7.85;4.47;;;;;;;;;;5086920;28;20062;-48
2022/01/11 02:25:46;;;;;;;8.48;4.43;;;;;;;;;;5086805;28;20020;-48
2022/01/11 02:28:17;;;;;;;6.45;4.35;;;;;;;;;;5085596;28;20464;-48
2022/01/11 02:30:43;;;;;;;8.27;4.28;;;;;;;;;;5085224;28;20024;-49
2022/01/11 02:33:57;;;;;;;7.97;4.90;;;;;;;;;;5086241;28;20144;-48
2022/01/11 02:35:57;;;;;;;8.82;4.78;;;;;;;;;;5090556;28;20518;-48
2022/01/11 02:38:23;;;;;;;7.55;4.45;;;;;;;;;;5105947;28;20028;-48
2022/01/11 02:40:49;;;;;;;10.25;5.15;;;;;;;;;;5098579;28;20376;-49
2022/01/11 02:43:16;;;;;;;7.28;4.40;;;;;;;;;;5086166;28;20066;-47
2022/01/11 02:45:43;;;;;;;7.80;5.05;;;;;;;;;;5085824;28;20032;-49
2022/01/11 02:48:09;;;;;;;10.20;5.32;;;;;;;;;;5085951;28;20032;-47
2022/01/11 02:50:36;;;;;;;9.55;5.10;;;;;;;;;;5088573;28;20019;-48
2022/01/11 02:53:03;;;;;;;8.75;5.20;;;;;;;;;;5105967;28;20028;-47
2022/01/11 02:55:29;;;;;;;8.93;5.55;;;;;;;;;;5104724;28;20030;-48
2022/01/11 02:57:56;;;;;;;7.72;5.50;;;;;;;;;;5094902;28;20031;-47
2022/01/11 03:00:23;;;;;;;9.48;5.40;;;;;;;;;;5086226;28;20073;-50
2022/01/11 03:02:49;;;;;;;6.43;4.43;;;;;;;;;;5107051;28;20023;-48
2022/01/11 03:05:16;;;;;;;7.07;4.13;;;;;;;;;;5106469;28;20141;-48
2022/01/11 03:07:43;;;;;;;5.63;3.80;;;;;;;;;;5105492;28;20039;-48
2022/01/11 03:12:56;;;;;;;6.93;4.18;;;;;;;;;;5092908;28;20078;-48
2022/01/11 03:15:22;;;;;;;5.40;4.05;;;;;;;;;;5102306;28;20519;-52
2022/01/11 03:17:48;;;;;;;7.63;4.97;;;;;;;;;;5106551;28;20020;-48
2022/01/11 03:20:14;;;;;;;6.82;3.83;;;;;;;;;;5106341;28;20023;-48
2022/01/11 03:22:40;;;;;;;6.00;3.80;;;;;;;;;;5085593;28;20028;-49
2022/01/11 03:25:06;;;;;;;5.07;3.47;;;;;;;;;;5085209;28;20035;-48
2022/01/11 03:27:33;;;;;;;7.70;4.30;;;;;;;;;;5084482;28;20027;-48
2022/01/11 03:29:59;;;;;;;7.30;4.68;;;;;;;;;;5084197;28;20121;-48
2022/01/11 03:32:25;;;;;;;6.72;4.53;;;;;;;;;;5084935;28;20658;-47
2022/01/11 03:34:52;;;;;;;12.32;5.13;;;;;;;;;;5083920;28;20123;-47
2022/01/11 03:37:20;;;;;;;14.63;7.00;;;;;;;;;;5085097;28;20600;-48
2022/01/11 03:39:47;;;;;;;14.23;6.72;;;;;;;;;;5084357;28;20032;-48
2022/01/11 03:42:13;;;;;;;14.15;7.00;;;;;;;;;;5096212;28;20024;-48
2022/01/11 03:44:39;;;;;;;12.30;5.93;;;;;;;;;;5084624;28;20503;-48
2022/01/11 03:47:05;;;;;;;10.27;5.30;;;;;;;;;;5085164;28;20045;-47
2022/01/11 03:49:31;;;;;;;9.57;5.07;;;;;;;;;;5066241;28;20506;-48
2022/01/11 03:51:57;;;;;;;9.45;5.30;;;;;;;;;;5097748;28;20024;-48
2022/01/11 03:54:27;;;;;;;8.95;4.95;;;;;;;;;;5105103;28;20053;-47
2022/01/11 03:56:53;;;;;;;7.95;4.63;;;;;;;;;;5102803;28;20032;-48
2022/01/11 03:59:20;;;;;;;8.77;4.80;;;;;;;;;;5084509;28;20122;-48
2022/01/11 04:01:48;;;;;;;9.45;5.20;;;;;;;;;;5083730;28;20032;-47
2022/01/11 04:04:15;;;;;;;7.38;4.55;;;;;;;;;;5084665;28;20207;-48
2022/01/11 04:06:42;;;;;;;7.32;4.38;;;;;;;;;;5084276;28;20031;-47
2022/01/11 04:09:09;;;;;;;10.57;4.70;;;;;;;;;;5084993;28;20119;-48
2022/01/11 04:11:36;;;;;;;7.15;4.43;;;;;;;;;;5083478;28;20548;-47
2022/01/11 04:14:03;;;;;;;9.55;4.90;;;;;;;;;;5084957;28;20028;-48
2022/01/11 04:16:30;;;;;;;8.38;4.80;;;;;;;;;;5097495;28;20146;-47
2022/01/11 04:18:55;;;;;;;9.38;4.88;;;;;;;;;;5105271;28;20110;-47
2022/01/11 04:21:22;;;;;;;7.22;4.43;;;;;;;;;;5093814;28;20123;-48
2022/01/11 04:23:48;;;;;;;6.40;4.32;;;;;;;;;;5088774;28;20428;-48
2022/01/11 04:26:14;;;;;;;7.45;4.32;;;;;;;;;;5088869;28;20028;-48
2022/01/11 04:28:41;;;;;;;6.60;4.50;;;;;;;;;;5099915;28;20398;-48
2022/01/11 04:31:07;;;;;;;6.95;4.53;;;;;;;;;;5106333;28;20044;-48
2022/01/11 04:33:33;;;;;;;6.82;4.40;;;;;;;;;;5108292;28;20510;-48
2022/01/11 04:35:59;;;;;;;7.72;4.50;;;;;;;;;;5109426;28;20035;-48
2022/01/11 04:38:28;;;;;;;5.97;4.28;;;;;;;;;;5108785;28;20545;-47
2022/01/11 04:40:54;;;;;;;6.38;4.55;;;;;;;;;;5102120;28;20481;-48
2022/01/11 04:43:20;;;;;;;6.63;4.00;;;;;;;;;;5087797;28;20395;-48
2022/01/11 04:45:47;;;;;;;6.35;4.47;;;;;;;;;;5088218;28;20487;-48
2022/01/11 04:48:15;;;;;;;5.85;4.30;;;;;;;;;;5088685;28;20016;-48
2022/01/11 04:50:45;;;;;;;7.22;4.55;;;;;;;;;;5089448;28;20051;-48
2022/01/11 04:53:11;;;;;;;7.07;4.90;;;;;;;;;;5107732;28;20023;-47
2022/01/11 04:55:37;;;;;;;7.30;4.47;;;;;;;;;;5108309;28;20434;-47
2022/01/11 04:58:04;;;;;;;7.00;4.40;;;;;;;;;;5096419;28;20020;-50
2022/01/11 05:00:30;;;;;;;6.85;4.93;;;;;;;;;;5087597;28;20027;-48
2022/01/11 05:02:58;;;;;;;8.15;4.95;;;;;;;;;;5088006;28;20020;-48
2022/01/11 05:05:26;;;;;;;8.20;5.32;;;;;;;;;;5087648;28;20024;-48
2022/01/11 05:07:52;;;;;;;11.50;5.80;;;;;;;;;;5087834;28;20125;-47
2022/01/11 05:10:19;;;;;;;6.82;4.45;;;;;;;;;;5102607;28;20525;-50
2022/01/11 05:12:45;;;;;;;7.03;4.45;;;;;;;;;;5097564;28;20048;-48
2022/01/11 05:15:12;;;;;;;5.90;4.20;;;;;;;;;;5088004;28;20020;-48
2022/01/11 05:17:39;;;;;;;6.57;4.53;;;;;;;;;;5087440;28;20111;-49
2022/01/11 05:20:06;;;;;;;8.65;5.10;;;;;;;;;;5087288;28;20032;-49
2022/01/11 05:22:33;;;;;;;7.20;4.93;;;;;;;;;;5108655;28;20414;-49
2022/01/11 05:25:00;;;;;;;6.07;4.35;;;;;;;;;;5108686;28;20034;-48
2022/01/11 05:27:27;;;;;;;7.43;4.70;;;;;;;;;;5104359;28;20020;-48
2022/01/11 05:29:54;;;;;;;6.45;4.47;;;;;;;;;;5100646;28;20299;-47
2022/01/11 05:32:20;;;;;;;7.82;5.07;;;;;;;;;;5087150;28;20050;-48
2022/01/11 05:34:47;;;;;;;7.93;4.50;;;;;;;;;;5086258;28;20032;-47
2022/01/11 05:37:14;;;;;;;6.80;4.60;;;;;;;;;;5085710;28;20118;-48
2022/01/11 05:39:40;;;;;;;7.30;4.38;;;;;;;;;;5085608;28;20073;-48
2022/01/11 05:42:06;;;;;;;6.63;4.30;;;;;;;;;;5086734;28;20556;-48
2022/01/11 05:44:36;;;;;;;5.60;4.03;;;;;;;;;;5087709;28;20506;-47
2022/01/11 05:47:02;;;;;;;5.95;4.38;;;;;;;;;;5088176;28;20099;-47
2022/01/11 05:49:28;;;;;;;6.40;4.43;;;;;;;;;;5086229;28;20031;-47
2022/01/11 05:51:56;;;;;;;9.07;5.65;;;;;;;;;;5087269;28;20449;-48
2022/01/11 05:54:23;;;;;;;9.35;4.93;;;;;;;;;;5085690;28;20058;-51
2022/01/11 05:56:50;;;;;;;9.00;5.15;;;;;;;;;;5086796;28;20407;-47
2022/01/11 05:59:17;;;;;;;7.85;5.22;;;;;;;;;;5086285;28;20040;-47
2022/01/11 06:01:43;;;;;;;8.98;5.43;;;;;;;;;;5086607;28;20036;-48
2022/01/11 06:04:10;;;;;;;6.38;4.75;;;;;;;;;;5086810;28;20035;-49
2022/01/11 06:06:36;;;;;;;10.18;5.70;;;;;;;;;;5086527;28;20020;-48
2022/01/11 06:09:03;;;;;;;9.75;5.68;;;;;;;;;;5086461;28;20383;-50
2022/01/11 06:11:30;;;;;;;9.25;6.38;;;;;;;;;;5087040;28;20024;-49
2022/01/11 06:13:57;;;;;;;7.32;5.38;;;;;;;;;;5086288;28;20034;-48
2022/01/11 06:16:24;;;;;;;10.85;5.97;;;;;;;;;;5086643;28;20024;-47
2022/01/11 06:18:50;;;;;;;8.13;5.10;;;;;;;;;;5094428;28;20092;-48
2022/01/11 06:21:16;;;;;;;10.75;5.13;;;;;;;;;;5106989;28;20024;-47
2022/01/11 06:23:42;;;;;;;7.57;5.35;;;;;;;;;;5106675;28;20498;-47
2022/01/11 06:26:09;;;;;;;9.40;5.85;;;;;;;;;;5105907;28;20547;-48
2022/01/11 06:28:35;;;;;;;9.52;5.53;;;;;;;;;;5088805;28;20483;-47
2022/01/11 06:31:01;;;;;;;8.45;4.78;;;;;;;;;;5086786;28;20024;-47
2022/01/11 06:33:27;;;;;;;7.72;5.28;;;;;;;;;;5086025;28;20442;-48
2022/01/11 06:35:53;;;;;;;7.60;5.28;;;;;;;;;;5086378;28;21032;-48
2022/01/11 06:38:20;;;;;;;7.60;4.95;;;;;;;;;;5085373;28;20032;-47
2022/01/11 06:40:46;;;;;;;8.52;5.10;;;;;;;;;;5085917;28;20050;-47
2022/01/11 06:43:12;;;;;;;7.93;5.10;;;;;;;;;;5085592;28;20558;-48
2022/01/11 06:45:39;;;;;;;9.50;6.40;;;;;;;;;;5084798;28;20035;-50
2022/01/11 06:48:06;;;;;;;11.13;6.38;;;;;;;;;;5100097;28;20035;-48
2022/01/11 06:50:32;;;;;;;11.70;7.38;;;;;;;;;;5108077;28;20394;-48
2022/01/11 06:52:58;;;;;;;12.60;7.40;;;;;;;;;;5107725;28;20028;-51
2022/01/11 06:55:25;;;;;;;14.85;8.55;;;;;;;;;;5104659;28;20453;-52
2022/01/11 06:57:51;;;;;;;18.10;9.73;;;;;;;;;;5086308;28;20028;-48
2022/01/11 07:00:18;;;;;;;16.33;8.20;;;;;;;;;;5097180;28;20103;-48
2022/01/11 07:02:46;;;;;;;17.00;8.73;;;;;;;;;;5091964;28;20035;-47
2022/01/11 07:05:13;;;;;;;16.33;8.60;;;;;;;;;;5095357;28;20034;-47
2022/01/11 07:07:39;;;;;;;14.60;7.68;;;;;;;;;;5107232;28;20402;-48
2022/01/11 07:10:06;;;;;;;14.05;7.75;;;;;;;;;;5099877;28;20032;-48
2022/01/11 07:12:32;;;;;;;15.00;8.57;;;;;;;;;;5086985;28;20024;-47
2022/01/11 07:14:58;;;;;;;18.35;10.30;;;;;;;;;;5099525;28;20035;-50
2022/01/11 07:17:25;;;;;;;18.70;10.63;;;;;;;;;;5107367;28;20042;-48
2022/01/11 07:19:52;;;;;;;16.38;9.40;;;;;;;;;;5107532;28;20022;-48
2022/01/11 07:22:18;;;;;;;14.63;8.93;;;;;;;;;;5095608;28;20036;-49
2022/01/11 07:24:44;;;;;;;13.85;7.93;;;;;;;;;;5090506;28;20401;-48
2022/01/11 07:27:10;;;;;;;14.30;7.93;;;;;;;;;;5101197;28;20024;-49
2022/01/11 07:29:36;;;;;;;13.43;7.65;;;;;;;;;;5086448;28;20020;-48
2022/01/11 07:32:03;;;;;;;11.02;6.22;;;;;;;;;;5086600;28;20030;-49
2022/01/11 07:34:29;;;;;;;11.35;6.53;;;;;;;;;;5086024;28;20487;-48
2022/01/11 07:36:55;;;;;;;10.02;6.35;;;;;;;;;;5087069;28;20358;-49
2022/01/11 07:39:21;;;;;;;9.95;5.22;;;;;;;;;;5086951;28;20114;-48
2022/01/11 07:41:48;;;;;;;8.90;5.25;;;;;;;;;;5085562;28;20095;-49
2022/01/11 07:44:14;;;;;;;8.75;5.55;;;;;;;;;;5085371;28;20846;-47
2022/01/11 07:46:42;;;;;;;9.43;5.88;;;;;;;;;;5086630;28;20020;-52
2022/01/11 07:49:08;;;;;;;6.65;4.90;;;;;;;;;;5068354;28;20446;-47
2022/01/11 07:51:34;;;;;;;8.05;5.07;;;;;;;;;;5085901;28;20027;-50
2022/01/11 07:54:00;;;;;;;7.65;5.15;;;;;;;;;;5086117;28;20402;-48
2022/01/11 07:56:27;;;;;;;7.35;5.10;;;;;;;;;;5084491;28;20035;-48
2022/01/11 07:58:53;;;;;;;8.52;5.18;;;;;;;;;;5092971;28;20035;-49
2022/01/11 08:01:19;;;;;;;8.05;5.18;;;;;;;;;;5087912;28;20040;-48
2022/01/11 08:03:49;;;;;;;7.85;5.18;;;;;;;;;;5085025;28;20026;-47
2022/01/11 08:06:15;;;;;;;6.97;4.90;;;;;;;;;;5080199;28;20032;-48
2022/01/11 08:08:41;;;;;;;8.00;4.88;;;;;;;;;;5083842;28;20107;-48
2022/01/11 08:11:07;;;;;;;7.88;5.40;;;;;;;;;;5081570;28;20033;-48
2022/01/11 08:13:33;;;;;;;8.15;4.88;;;;;;;;;;5085585;28;20032;-52
2022/01/11 08:15:59;;;;;;;7.53;5.05;;;;;;;;;;5087065;28;20032;-49
2022/01/11 08:18:25;;;;;;;7.88;5.25;;;;;;;;;;5086372;28;20028;-49
2022/01/11 08:20:51;;;;;;;9.00;5.80;;;;;;;;;;5086670;28;20402;-48
2022/01/11 08:23:17;;;;;;;8.60;4.75;;;;;;;;;;5087063;28;20380;-51
2022/01/11 08:25:44;;;;;;;8.35;5.57;;;;;;;;;;5091316;28;20030;-51
2022/01/11 08:28:10;;;;;;;8.43;5.75;;;;;;;;;;5093842;28;20024;-48
2022/01/11 08:30:36;;;;;;;8.88;5.45;;;;;;;;;;5086617;28;20028;-53
2022/01/11 08:33:04;;;;;;;7.47;4.97;;;;;;;;;;5086914;28;20020;-50
2022/01/11 08:35:31;;;;;;;10.70;6.45;;;;;;;;;;5087370;28;20024;-52
2022/01/11 08:37:57;;;;;;;8.30;5.32;;;;;;;;;;5086087;28;20025;-50
2022/01/11 08:40:25;;;;;;;8.02;5.03;;;;;;;;;;5088507;28;20031;-49
2022/01/11 08:42:52;;;;;;;8.73;5.25;;;;;;;;;;5086155;28;20392;-49
2022/01/11 08:45:18;;;;;;;7.70;4.57;;;;;;;;;;5086331;28;20073;-48
2022/01/11 08:47:44;;;;;;;8.30;5.18;;;;;;;;;;5086416;28;20107;-52
2022/01/11 08:50:11;;;;;;;11.35;6.70;;;;;;;;;;5086761;28;20035;-49
2022/01/11 08:52:38;;;;;;;9.35;6.18;;;;;;;;;;5084676;28;20023;-52
2022/01/11 08:55:04;;;;;;;8.60;5.30;;;;;;;;;;5100506;28;20574;-51
2022/01/11 08:57:31;;;;;;;11.15;6.30;;;;;;;;;;5090055;28;20024;-51
2022/01/11 08:59:57;;;;;;;8.93;5.53;;;;;;;;;;5085400;28;20024;-48
2022/01/11 09:02:23;;;;;;;7.43;5.07;;;;;;;;;;5086962;28;20031;-51
2022/01/11 09:04:52;;;;;;;8.57;5.10;;;;;;;;;;5070361;28;20446;-48
2022/01/11 09:07:18;;;;;;;8.45;4.95;;;;;;;;;;5099743;28;20076;-49
2022/01/11 09:09:44;;;;;;;8.27;5.53;;;;;;;;;;5090199;28;20036;-48
2022/01/11 09:12:13;;;;;;;7.68;5.65;;;;;;;;;;5092683;28;20032;-49
2022/01/11 09:14:39;;;;;;;8.63;5.72;;;;;;;;;;5083635;28;20032;-49
2022/01/11 09:17:06;;;;;;;8.55;5.22;;;;;;;;;;5095509;28;20032;-50
2022/01/11 09:19:33;;;;;;;9.52;5.88;;;;;;;;;;5097736;28;20078;-52
2022/01/11 09:22:00;;;;;;;11.50;6.57;;;;;;;;;;5081876;28;20460;-49
2022/01/11 09:24:29;;;;;;;9.05;6.28;;;;;;;;;;5078763;28;20107;-48
2022/01/11 09:26:56;;;;;;;10.63;6.55;;;;;;;;;;5102035;28;20040;-50
2022/01/11 09:29:24;;;;;;;10.18;5.93;;;;;;;;;;5087647;28;20552;-49
2022/01/11 09:31:50;;;;;;;8.35;5.32;;;;;;;;;;5084857;28;20047;-49
2022/01/11 09:34:17;;;;;;;9.20;5.03;;;;;;;;;;5088685;28;20028;-48
2022/01/11 09:36:43;;;;;;;8.20;5.30;;;;;;;;;;5087582;28;20103;-48
2022/01/11 09:39:09;;;;;;;7.95;5.45;;;;;;;;;;5087812;28;20031;-50
2022/01/11 09:41:36;;;;;;;9.35;5.93;;;;;;;;;;5087200;28;20174;-49
2022/01/11 09:44:05;;;;;;;10.40;6.03;;;;;;;;;;5088207;28;20039;-49
2022/01/11 09:46:31;;;;;;;8.85;5.15;;;;;;;;;;5087954;28;20024;-48
2022/01/11 09:48:57;;;;;;;10.57;5.70;;;;;;;;;;5089735;28;20035;-48
2022/01/11 09:51:24;;;;;;;10.32;5.82;;;;;;;;;;5088124;28;20024;-51
2022/01/11 09:53:51;;;;;;;9.82;6.20;;;;;;;;;;5088118;28;20408;-51
2022/01/11 09:56:18;;;;;;;9.52;5.70;;;;;;;;;;5087884;28;20245;-49
2022/01/11 09:58:44;;;;;;;9.80;6.03;;;;;;;;;;5097454;28;20027;-49
2022/01/11 10:01:11;;;;;;;8.15;5.20;;;;;;;;;;5096018;28;20036;-50
2022/01/11 10:03:58;;;;;;;8.20;5.35;;;;;;;;;;5086327;28;20115;-50
2022/01/11 10:06:25;;;;;;;9.10;5.93;;;;;;;;;;5086313;28;20028;-48
2022/01/11 10:09:07;;;;;;;8.38;4.97;;;;;;;;;;5088944;28;20032;-48
2022/01/11 10:11:40;;;;;;;8.10;5.05;;;;;;;;;;5087417;28;20468;-49
2022/01/11 10:14:36;;;;;;;8.00;5.13;;;;;;;;;;5076250;28;20039;-48
2022/01/11 10:17:08;;;;;;;7.75;5.03;;;;;;;;;;5073737;28;20076;-48
2022/01/11 10:19:35;;;;;;;8.65;4.95;;;;;;;;;;5090441;28;20256;-48
2022/01/11 10:22:04;;;;;;;8.00;5.03;;;;;;;;;;5092730;28;20103;-49
2022/01/11 10:24:32;;;;;;;8.80;5.82;;;;;;;;;;5099232;28;20035;-49
2022/01/11 10:26:59;;;;;;;10.35;6.88;;;;;;;;;;5101098;28;20064;-49
2022/01/11 10:29:30;;;;;;;13.05;6.75;;;;;;;;;;5086475;28;20131;-49
2022/01/11 10:31:59;;;;;;;9.98;7.07;;;;;;;;;;5087230;28;20056;-48
2022/01/11 10:34:30;;;;;;;12.05;6.90;;;;;;;;;;5087365;28;20031;-49
2022/01/11 10:36:56;;;;;;;13.63;7.88;;;;;;;;;;5093788;28;20040;-49
2022/01/11 10:39:27;;;;;;;18.02;8.93;;;;;;;;;;5085898;28;20049;-50
2022/01/11 10:41:53;;;;;;;12.45;7.65;;;;;;;;;;5083496;28;20038;-48
2022/01/11 10:44:38;;;;;;;15.18;8.73;;;;;;;;;;5085050;28;20084;-47
2022/01/11 10:47:04;;;;;;;16.40;9.35;;;;;;;;;;5080329;28;20032;-49
2022/01/11 10:49:31;;;;;;;15.00;8.85;;;;;;;;;;5080746;28;20024;-51
2022/01/11 10:52:17;;;;;;;17.90;9.48;;;;;;;;;;5079648;28;20066;-50
2022/01/11 10:54:44;;;;;;;20.23;10.45;;;;;;;;;;5078106;28;20035;-52
2022/01/11 10:57:17;;;;;;;15.98;8.38;;;;;;;;;;5079485;28;20032;-50
2022/01/11 10:59:43;;;;;;;16.20;8.20;;;;;;;;;;5076686;28;20040;-50
2022/01/11 11:02:13;;;;;;;14.55;6.82;;;;;;;;;;5083568;28;20402;-48
2022/01/11 11:04:39;;;;;;;14.43;7.95;;;;;;;;;;5085548;28;20016;-49
2022/01/11 11:07:15;;;;;;;12.85;6.78;;;;;;;;;;5084656;28;20564;-48
2022/01/11 11:09:50;;;;;;;14.98;7.88;;;;;;;;;;5078625;28;20124;-49
2022/01/11 11:12:23;;;;;;;13.43;7.13;;;;;;;;;;5083849;28;20119;-48
2022/01/11 11:14:52;;;;;;;9.52;6.00;;;;;;;;;;5091521;28;20031;-49
2022/01/11 11:17:30;;;;;;;11.77;6.18;;;;;;;;;;5086546;28;20063;-49
2022/01/11 11:20:01;;;;;;;9.95;5.93;;;;;;;;;;5086608;28;20439;-51
2022/01/11 11:22:30;;;;;;;9.73;6.35;;;;;;;;;;5086711;28;20032;-51
2022/01/11 11:24:56;;;;;;;8.43;5.47;;;;;;;;;;5068510;28;20039;-50
2022/01/11 11:27:23;;;;;;;9.10;5.65;;;;;;;;;;5085560;28;20020;-51
2022/01/11 11:29:50;;;;;;;7.78;5.38;;;;;;;;;;5086796;28;20028;-49
2022/01/11 11:32:20;;;;;;;8.00;5.07;;;;;;;;;;5085863;28;20024;-49
2022/01/11 11:34:50;;;;;;;7.05;4.82;;;;;;;;;;5086703;28;20028;-50
2022/01/11 11:37:36;;;;;;;7.65;5.28;;;;;;;;;;5086613;28;20028;-49
2022/01/11 11:40:05;;;;;;;8.65;5.35;;;;;;;;;;5086878;28;20027;-51
2022/01/11 11:42:32;;;;;;;9.13;5.57;;;;;;;;;;5086177;28;20020;-50
2022/01/11 11:44:59;;;;;;;11.15;6.57;;;;;;;;;;5080152;28;20112;-49
2022/01/11 11:47:35;;;;;;;9.65;6.35;;;;;;;;;;5083552;28;20160;-51
2022/01/11 11:50:05;;;;;;;12.18;6.80;;;;;;;;;;5076377;28;20078;-52
2022/01/11 11:52:32;;;;;;;8.90;5.63;;;;;;;;;;5085082;28;20023;-53
2022/01/11 11:55:05;;;;;;;8.73;5.35;;;;;;;;;;5098232;28;20110;-49
2022/01/11 11:57:33;;;;;;;9.70;5.20;;;;;;;;;;5087801;28;20024;-53
2022/01/11 12:00:00;;;;;;;8.70;5.20;;;;;;;;;;5086968;28;20530;-52
2022/01/11 12:02:34;;;;;;;9.20;5.57;;;;;;;;;;5085799;28;20028;-50
2022/01/11 12:05:00;;;;;;;10.73;5.68;;;;;;;;;;5086535;28;20059;-49
2022/01/11 12:07:32;;;;;;;10.25;5.40;;;;;;;;;;5083639;28;20101;-51
2022/01/11 12:09:59;;;;;;;7.97;5.32;;;;;;;;;;5085372;28;20511;-51
2022/01/11 12:12:40;;;;;;;7.43;4.85;;;;;;;;;;5083861;28;20031;-50
2022/01/11 12:15:21;;;;;;;8.18;5.30;;;;;;;;;;5084870;28;20032;-49
2022/01/11 12:17:48;;;;;;;7.85;5.35;;;;;;;;;;5084839;28;20021;-50
2022/01/11 12:20:34;;;;;;;8.10;5.20;;;;;;;;;;5084764;28;20627;-50
2022/01/11 12:23:01;;;;;;;9.18;5.57;;;;;;;;;;5085829;28;20025;-48
2022/01/11 12:25:32;;;;;;;8.68;4.82;;;;;;;;;;5084451;28;20090;-50
2022/01/11 12:27:59;;;;;;;6.72;4.32;;;;;;;;;;5066517;28;20500;-48
2022/01/11 12:30:26;;;;;;;7.18;4.63;;;;;;;;;;5084060;28;20152;-49
2022/01/11 12:33:11;;;;;;;7.72;4.80;;;;;;;;;;5084702;28;20036;-49
2022/01/11 12:36:03;;;;;;;9.10;5.00;;;;;;;;;;5084107;28;20156;-51
2022/01/11 12:38:36;;;;;;;6.90;4.55;;;;;;;;;;5081234;28;20035;-52
2022/01/11 12:41:34;;;;;;;9.82;5.35;;;;;;;;;;5085073;28;20035;-49
2022/01/11 12:44:21;;;;;;;9.27;5.57;;;;;;;;;;5040539;28;20028;-49
2022/01/11 12:46:55;;;;;;;9.50;5.55;;;;;;;;;;5088127;28;20063;-50
2022/01/11 12:49:23;;;;;;;8.07;5.25;;;;;;;;;;5088167;28;20043;-51
2022/01/11 12:51:52;;;;;;;8.38;5.20;;;;;;;;;;5088041;28;20028;-51
2022/01/11 12:54:23;;;;;;;7.88;4.70;;;;;;;;;;5088427;28;20411;-50
2022/01/11 12:56:51;;;;;;;6.85;4.28;;;;;;;;;;5087929;28;20024;-49
2022/01/11 12:59:19;;;;;;;5.45;3.95;;;;;;;;;;5088173;28;20020;-49
2022/01/11 13:01:46;;;;;;;7.70;4.90;;;;;;;;;;5087811;28;20055;-51
2022/01/11 13:04:12;;;;;;;7.30;4.80;;;;;;;;;;5087795;28;20106;-52
2022/01/11 13:06:39;;;;;;;6.70;4.65;;;;;;;;;;5088116;28;20505;-48
2022/01/11 13:09:08;;;;;;;6.65;4.30;;;;;;;;;;5088132;28;20039;-49
2022/01/11 13:11:35;;;;;;;7.72;5.10;;;;;;;;;;5087832;28;20072;-50
2022/01/11 13:14:49;;;;;;;7.30;4.18;;;;;;;;;;5088093;28;20027;-51
2022/01/11 13:16:51;;;;;;;7.53;4.57;;;;;;;;;;5076272;28;20051;-50
2022/01/11 13:19:17;;;;;;;6.97;4.40;;;;;;;;;;5090486;28;20068;-50
2022/01/11 13:21:45;;;;;;;6.38;4.13;;;;;;;;;;5107735;28;20108;-49
2022/01/11 13:24:23;;;;;;;7.28;4.75;;;;;;;;;;5093030;28;20466;-48
2022/01/11 13:26:53;;;;;;;6.90;4.72;;;;;;;;;;5107705;28;20471;-51
2022/01/11 13:29:19;;;;;;;6.68;4.50;;;;;;;;;;5088954;28;20511;-49
2022/01/11 13:31:50;;;;;;;7.47;3.83;;;;;;;;;;5088127;28;20039;-50
2022/01/11 13:34:16;;;;;;;8.07;4.60;;;;;;;;;;5093504;28;20493;-50
2022/01/11 13:36:47;;;;;;;8.15;4.45;;;;;;;;;;5109133;28;20490;-48
2022/01/11 13:39:15;;;;;;;6.85;5.20;;;;;;;;;;5096398;28;20109;-50
2022/01/11 13:41:43;;;;;;;8.23;5.30;;;;;;;;;;5069672;28;20028;-50
2022/01/11 13:44:12;;;;;;;8.30;4.25;;;;;;;;;;5087586;28;20058;-48
2022/01/11 13:46:42;;;;;;;7.68;4.97;;;;;;;;;;5092078;28;20028;-49
2022/01/11 13:49:29;;;;;;;10.30;5.75;;;;;;;;;;5086625;28;20441;-50
2022/01/11 13:51:57;;;;;;;14.07;7.07;;;;;;;;;;5086174;28;20164;-50
2022/01/11 13:54:29;;;;;;;12.85;7.07;;;;;;;;;;5086148;28;20477;-50
2022/01/11 13:56:56;;;;;;;13.38;7.00;;;;;;;;;;5090880;28;20113;-49
2022/01/11 13:59:27;;;;;;;12.82;7.05;;;;;;;;;;5094702;28;20024;-52
2022/01/11 14:02:07;;;;;;;20.48;9.85;;;;;;;;;;5066132;28;20040;-49
2022/01/11 14:04:38;;;;;;;20.98;10.30;;;;;;;;;;5085978;28;20027;-49
2022/01/11 14:07:12;;;;;;;18.92;9.65;;;;;;;;;;5086278;28;20031;-49
2022/01/11 14:09:47;;;;;;;16.65;8.23;;;;;;;;;;5100896;28;20031;-52
2022/01/11 14:12:22;;;;;;;15.52;8.15;;;;;;;;;;5070420;28;20468;-50
2022/01/11 14:14:51;;;;;;;17.83;7.68;;;;;;;;;;5086103;28;20047;-50
2022/01/11 14:17:19;;;;;;;13.05;7.05;;;;;;;;;;5086293;28;20115;-50
2022/01/11 14:19:57;;;;;;;12.15;6.57;;;;;;;;;;5100920;28;20279;-49
2022/01/11 14:22:35;;;;;;;11.68;6.45;;;;;;;;;;5086566;28;20525;-52
2022/01/11 14:25:03;;;;;;;11.43;6.90;;;;;;;;;;5088615;28;20035;-50
2022/01/11 14:27:30;;;;;;;13.30;7.32;;;;;;;;;;5099221;28;20043;-49
2022/01/11 14:30:01;;;;;;;11.52;6.88;;;;;;;;;;5085610;28;20024;-49
2022/01/11 14:32:28;;;;;;;10.95;6.50;;;;;;;;;;5085879;28;20080;-50
2022/01/11 14:34:59;;;;;;;8.48;5.30;;;;;;;;;;5106310;28;20032;-50
2022/01/11 14:37:26;;;;;;;8.93;5.43;;;;;;;;;;5105394;28;20105;-50
2022/01/11 14:39:52;;;;;;;12.20;7.22;;;;;;;;;;5102982;28;20474;-50
2022/01/11 14:42:26;;;;;;;14.88;8.00;;;;;;;;;;5085798;28;20085;-49
2022/01/11 14:45:01;;;;;;;15.50;8.45;;;;;;;;;;5084045;28;20099;-51
2022/01/11 14:47:38;;;;;;;16.77;8.77;;;;;;;;;;5100605;28;20544;-50
2022/01/11 14:50:09;;;;;;;13.80;7.22;;;;;;;;;;5099794;28;20016;-49
2022/01/11 14:52:49;;;;;;;17.25;8.98;;;;;;;;;;5085318;28;20457;-50
2022/01/11 14:55:17;;;;;;;14.13;7.45;;;;;;;;;;5064697;28;20039;-49